sensor_id;sensor_type;location;lat;lon;timestamp;pressure;altitude;pressure_sealevel;temperature;humidity
52032;BME280;38044;45.148;39.604;2024-02-16T00:02:20;101598.91;;;2.86;74.18
52032;BME280;38044;45.148;39.604;2024-02-16T00:04:48;101606.78;;;2.68;74.35
52032;BME280;38044;45.148;39.604;2024-02-16T00:07:13;101600.59;;;2.81;73.91
52032;BME280;38044;45.148;39.604;2024-02-16T00:09:39;101595.16;;;2.69;74.36
52032;BME280;38044;45.148;39.604;2024-02-16T00:12:05;101601.47;;;2.68;74.33
52032;BME280;38044;45.148;39.604;2024-02-16T00:14:31;101603.50;;;2.66;74.17
52032;BME280;38044;45.148;39.604;2024-02-16T00:16:57;101613.72;;;2.69;74.27
52032;BME280;38044;45.148;39.604;2024-02-16T00:19:23;101595.16;;;2.62;74.25
52032;BME280;38044;45.148;39.604;2024-02-16T00:21:50;101606.53;;;2.76;73.68
52032;BME280;38044;45.148;39.604;2024-02-16T00:24:16;101607.19;;;2.65;74.46
52032;BME280;38044;45.148;39.604;2024-02-16T00:26:43;101607.59;;;2.68;74.07
52032;BME280;38044;45.148;39.604;2024-02-16T00:29:11;101614.13;;;2.66;74.09
52032;BME280;38044;45.148;39.604;2024-02-16T00:31:37;101610.22;;;2.68;74.19
52032;BME280;38044;45.148;39.604;2024-02-16T00:34:03;101596.22;;;2.55;74.27
52032;BME280;38044;45.148;39.604;2024-02-16T00:36:29;101588.47;;;2.53;74.18
52032;BME280;38044;45.148;39.604;2024-02-16T00:38:56;101612.50;;;2.65;74.19
52032;BME280;38044;45.148;39.604;2024-02-16T00:41:23;101598.63;;;2.63;73.83
52032;BME280;38044;45.148;39.604;2024-02-16T00:43:50;101588.44;;;2.60;74.27
52032;BME280;38044;45.148;39.604;2024-02-16T00:46:17;101598.63;;;2.63;74.29
52032;BME280;38044;45.148;39.604;2024-02-16T00:48:43;101604.34;;;2.66;73.99
52032;BME280;38044;45.148;39.604;2024-02-16T00:51:09;101584.78;;;2.54;73.93
52032;BME280;38044;45.148;39.604;2024-02-16T00:53:35;101586.81;;;2.59;73.86
52032;BME280;38044;45.148;39.604;2024-02-16T00:56:00;101593.31;;;2.63;74.13
52032;BME280;38044;45.148;39.604;2024-02-16T00:58:26;101596.16;;;2.68;74.14
52032;BME280;38044;45.148;39.604;2024-02-16T01:00:52;101599.63;;;2.68;74.30
52032;BME280;38044;45.148;39.604;2024-02-16T01:03:18;101601.03;;;2.71;74.03
52032;BME280;38044;45.148;39.604;2024-02-16T01:05:44;101600.22;;;2.70;73.65
52032;BME280;38044;45.148;39.604;2024-02-16T01:08:10;101575.38;;;2.58;73.72
52032;BME280;38044;45.148;39.604;2024-02-16T01:10:36;101597.38;;;2.72;73.40
52032;BME280;38044;45.148;39.604;2024-02-16T01:13:02;101587.50;;;2.79;73.12
52032;BME280;38044;45.148;39.604;2024-02-16T01:15:29;101579.72;;;2.84;72.62
52032;BME280;38044;45.148;39.604;2024-02-16T01:17:54;101573.84;;;2.76;72.79
52032;BME280;38044;45.148;39.604;2024-02-16T01:20:20;101599.34;;;2.83;72.91
52032;BME280;38044;45.148;39.604;2024-02-16T01:22:46;101585.22;;;2.83;72.69
52032;BME280;38044;45.148;39.604;2024-02-16T01:25:12;101580.53;;;2.85;72.56
52032;BME280;38044;45.148;39.604;2024-02-16T01:27:38;101579.91;;;2.89;72.65
52032;BME280;38044;45.148;39.604;2024-02-16T01:30:06;101593.59;;;2.86;72.09
52032;BME280;38044;45.148;39.604;2024-02-16T01:32:32;101585.03;;;2.84;72.40
52032;BME280;38044;45.148;39.604;2024-02-16T01:35:00;101565.47;;;2.79;72.46
52032;BME280;38044;45.148;39.604;2024-02-16T01:37:26;101596.84;;;2.88;72.08
52032;BME280;38044;45.148;39.604;2024-02-16T01:39:52;101589.69;;;2.89;72.07
52032;BME280;38044;45.148;39.604;2024-02-16T01:42:18;101615.22;;;2.90;71.94
52032;BME280;38044;45.148;39.604;2024-02-16T01:44:43;101605.81;;;2.94;71.95
52032;BME280;38044;45.148;39.604;2024-02-16T01:47:09;101607.03;;;2.91;71.84
52032;BME280;38044;45.148;39.604;2024-02-16T01:49:35;101613.63;;;2.82;71.97
52032;BME280;38044;45.148;39.604;2024-02-16T01:52:02;101618.53;;;2.85;72.29
52032;BME280;38044;45.148;39.604;2024-02-16T01:54:28;101613.88;;;2.81;72.25
52032;BME280;38044;45.148;39.604;2024-02-16T01:56:55;101631.59;;;2.87;72.25
52032;BME280;38044;45.148;39.604;2024-02-16T01:59:22;101628.72;;;2.88;71.58
52032;BME280;38044;45.148;39.604;2024-02-16T02:01:48;101634.13;;;2.75;72.34
52032;BME280;38044;45.148;39.604;2024-02-16T02:04:14;101632.28;;;2.76;72.11
52032;BME280;38044;45.148;39.604;2024-02-16T02:06:41;101622.69;;;2.68;72.06
52032;BME280;38044;45.148;39.604;2024-02-16T02:09:07;101635.53;;;2.78;71.96
52032;BME280;38044;45.148;39.604;2024-02-16T02:11:33;101634.50;;;2.79;71.32
52032;BME280;38044;45.148;39.604;2024-02-16T02:13:58;101630.22;;;2.78;71.66
52032;BME280;38044;45.148;39.604;2024-02-16T02:16:24;101643.09;;;2.81;70.87
52032;BME280;38044;45.148;39.604;2024-02-16T02:18:52;101647.97;;;2.77;71.13
52032;BME280;38044;45.148;39.604;2024-02-16T02:21:18;101638.81;;;2.73;70.95
52032;BME280;38044;45.148;39.604;2024-02-16T02:23:44;101646.34;;;2.76;71.41
52032;BME280;38044;45.148;39.604;2024-02-16T02:26:09;101631.72;;;2.60;72.12
52032;BME280;38044;45.148;39.604;2024-02-16T02:28:36;101656.59;;;2.66;71.84
52032;BME280;38044;45.148;39.604;2024-02-16T02:31:01;101655.22;;;2.63;72.18
52032;BME280;38044;45.148;39.604;2024-02-16T02:33:28;101651.72;;;2.63;72.38
52032;BME280;38044;45.148;39.604;2024-02-16T02:35:55;101658.06;;;2.62;72.50
52032;BME280;38044;45.148;39.604;2024-02-16T02:38:21;101661.34;;;2.64;72.50
52032;BME280;38044;45.148;39.604;2024-02-16T02:40:46;101638.09;;;2.53;72.22
52032;BME280;38044;45.148;39.604;2024-02-16T02:43:12;101665.41;;;2.60;72.34
52032;BME280;38044;45.148;39.604;2024-02-16T02:45:39;101652.75;;;2.62;72.13
52032;BME280;38044;45.148;39.604;2024-02-16T02:48:05;101645.84;;;2.54;72.34
52032;BME280;38044;45.148;39.604;2024-02-16T02:50:31;101653.19;;;2.59;72.07
52032;BME280;38044;45.148;39.604;2024-02-16T02:52:57;101653.41;;;2.51;72.27
52032;BME280;38044;45.148;39.604;2024-02-16T02:55:23;101660.31;;;2.65;72.15
52032;BME280;38044;45.148;39.604;2024-02-16T02:57:49;101666.41;;;2.65;71.82
52032;BME280;38044;45.148;39.604;2024-02-16T03:00:15;101663.75;;;2.65;71.48
52032;BME280;38044;45.148;39.604;2024-02-16T03:02:41;101663.81;;;2.59;71.95
52032;BME280;38044;45.148;39.604;2024-02-16T03:05:09;101674.59;;;2.64;71.48
52032;BME280;38044;45.148;39.604;2024-02-16T03:07:35;101643.59;;;2.51;71.56
52032;BME280;38044;45.148;39.604;2024-02-16T03:10:02;101645.69;;;2.49;71.19
52032;BME280;38044;45.148;39.604;2024-02-16T03:12:29;101655.41;;;2.62;71.56
52032;BME280;38044;45.148;39.604;2024-02-16T03:14:55;101657.69;;;2.52;71.32
52032;BME280;38044;45.148;39.604;2024-02-16T03:17:21;101664.84;;;2.58;71.47
52032;BME280;38044;45.148;39.604;2024-02-16T03:19:47;101681.38;;;2.53;71.34
52032;BME280;38044;45.148;39.604;2024-02-16T03:22:13;101705.25;;;2.60;71.16
52032;BME280;38044;45.148;39.604;2024-02-16T03:24:39;101677.50;;;2.56;70.95
52032;BME280;38044;45.148;39.604;2024-02-16T03:27:05;101664.69;;;2.39;71.20
52032;BME280;38044;45.148;39.604;2024-02-16T03:29:31;101682.84;;;2.49;71.29
52032;BME280;38044;45.148;39.604;2024-02-16T03:31:56;101682.00;;;2.48;71.42
52032;BME280;38044;45.148;39.604;2024-02-16T03:34:23;101665.72;;;2.38;71.56
52032;BME280;38044;45.148;39.604;2024-02-16T03:36:49;101680.81;;;2.44;72.33
52032;BME280;38044;45.148;39.604;2024-02-16T03:39:15;101683.88;;;2.41;72.02
52032;BME280;38044;45.148;39.604;2024-02-16T03:41:45;101680.81;;;2.44;71.14
52032;BME280;38044;45.148;39.604;2024-02-16T03:44:14;101691.63;;;2.36;72.17
52032;BME280;38044;45.148;39.604;2024-02-16T03:46:42;101702.03;;;2.44;71.25
52032;BME280;38044;45.148;39.604;2024-02-16T03:49:09;101687.16;;;2.30;71.42
52032;BME280;38044;45.148;39.604;2024-02-16T03:51:35;101700.00;;;2.40;71.86
52032;BME280;38044;45.148;39.604;2024-02-16T03:54:02;101693.91;;;2.26;72.68
52032;BME280;38044;45.148;39.604;2024-02-16T03:56:30;101693.13;;;2.19;72.96
52032;BME280;38044;45.148;39.604;2024-02-16T03:58:55;101683.13;;;2.08;73.17
52032;BME280;38044;45.148;39.604;2024-02-16T04:01:21;101691.47;;;2.11;73.19
52032;BME280;38044;45.148;39.604;2024-02-16T04:03:47;101687.22;;;2.03;73.32
52032;BME280;38044;45.148;39.604;2024-02-16T04:06:13;101689.63;;;2.12;73.41
52032;BME280;38044;45.148;39.604;2024-02-16T04:08:39;101683.97;;;2.01;73.70
52032;BME280;38044;45.148;39.604;2024-02-16T04:11:05;101695.19;;;2.03;73.67
52032;BME280;38044;45.148;39.604;2024-02-16T04:13:31;101674.41;;;1.80;73.96
52032;BME280;38044;45.148;39.604;2024-02-16T04:15:58;101703.34;;;1.82;74.29
52032;BME280;38044;45.148;39.604;2024-02-16T04:18:24;101696.00;;;1.84;74.09
52032;BME280;38044;45.148;39.604;2024-02-16T04:20:50;101701.72;;;1.81;74.05
52032;BME280;38044;45.148;39.604;2024-02-16T04:23:17;101698.88;;;1.76;74.38
52032;BME280;38044;45.148;39.604;2024-02-16T04:25:43;101715.97;;;1.80;74.28
52032;BME280;38044;45.148;39.604;2024-02-16T04:28:09;101683.34;;;1.60;74.63
52032;BME280;38044;45.148;39.604;2024-02-16T04:30:35;101713.56;;;1.72;74.46
52032;BME280;38044;45.148;39.604;2024-02-16T04:33:01;101713.34;;;1.67;74.68
52032;BME280;38044;45.148;39.604;2024-02-16T04:35:27;101707.84;;;1.68;74.60
52032;BME280;38044;45.148;39.604;2024-02-16T04:37:52;101711.31;;;1.75;75.29
52032;BME280;38044;45.148;39.604;2024-02-16T04:40:18;101706.63;;;1.84;75.18
52032;BME280;38044;45.148;39.604;2024-02-16T04:42:45;101721.72;;;1.84;74.24
52032;BME280;38044;45.148;39.604;2024-02-16T04:45:11;101718.84;;;1.78;74.01
52032;BME280;38044;45.148;39.604;2024-02-16T04:47:38;101718.25;;;1.70;74.55
52032;BME280;38044;45.148;39.604;2024-02-16T04:50:05;101721.69;;;1.77;74.12
52032;BME280;38044;45.148;39.604;2024-02-16T04:52:36;101728.22;;;1.74;74.35
52032;BME280;38044;45.148;39.604;2024-02-16T04:55:03;101734.38;;;1.75;74.41
52032;BME280;38044;45.148;39.604;2024-02-16T04:57:29;101730.28;;;1.79;74.17
52032;BME280;38044;45.148;39.604;2024-02-16T04:59:55;101729.03;;;1.88;74.04
52032;BME280;38044;45.148;39.604;2024-02-16T05:02:20;101738.22;;;1.86;73.91
52032;BME280;38044;45.148;39.604;2024-02-16T05:04:46;101737.81;;;1.89;73.39
52032;BME280;38044;45.148;39.604;2024-02-16T05:07:12;101733.13;;;1.84;73.55
52032;BME280;38044;45.148;39.604;2024-02-16T05:09:38;101746.59;;;1.89;73.61
52032;BME280;38044;45.148;39.604;2024-02-16T05:12:05;101735.16;;;1.89;73.68
52032;BME280;38044;45.148;39.604;2024-02-16T05:14:31;101745.78;;;1.95;73.28
52032;BME280;38044;45.148;39.604;2024-02-16T05:16:57;101761.28;;;1.92;73.31
52032;BME280;38044;45.148;39.604;2024-02-16T05:19:23;101757.19;;;2.02;72.84
52032;BME280;38044;45.148;39.604;2024-02-16T05:21:48;101757.63;;;2.06;72.97
52032;BME280;38044;45.148;39.604;2024-02-16T05:24:14;101763.13;;;2.05;73.17
52032;BME280;38044;45.148;39.604;2024-02-16T05:26:40;101747.81;;;1.93;73.13
52032;BME280;38044;45.148;39.604;2024-02-16T05:29:06;101773.53;;;2.13;72.86
52032;BME280;38044;45.148;39.604;2024-02-16T05:31:32;101768.63;;;2.10;73.11
52032;BME280;38044;45.148;39.604;2024-02-16T05:33:58;101750.06;;;1.96;73.29
52032;BME280;38044;45.148;39.604;2024-02-16T05:36:23;101758.22;;;2.01;72.74
52032;BME280;38044;45.148;39.604;2024-02-16T05:38:55;101764.97;;;2.04;73.33
52032;BME280;38044;45.148;39.604;2024-02-16T05:41:24;101761.91;;;2.07;73.08
52032;BME280;38044;45.148;39.604;2024-02-16T05:43:50;101764.31;;;2.09;72.56
52032;BME280;38044;45.148;39.604;2024-02-16T05:46:16;101755.16;;;1.91;72.98
52032;BME280;38044;45.148;39.604;2024-02-16T05:48:43;101767.38;;;2.06;72.90
52032;BME280;38044;45.148;39.604;2024-02-16T05:51:11;101774.34;;;2.07;72.79
52032;BME280;38044;45.148;39.604;2024-02-16T05:53:40;101755.16;;;2.05;72.88
52032;BME280;38044;45.148;39.604;2024-02-16T05:56:07;101761.47;;;2.10;72.84
52032;BME280;38044;45.148;39.604;2024-02-16T05:58:33;101764.13;;;2.17;72.46
52032;BME280;38044;45.148;39.604;2024-02-16T06:00:59;101763.31;;;2.10;72.90
52032;BME280;38044;45.148;39.604;2024-02-16T06:03:25;101765.78;;;2.18;72.14
52032;BME280;38044;45.148;39.604;2024-02-16T06:05:52;101782.50;;;2.18;72.39
52032;BME280;38044;45.148;39.604;2024-02-16T06:08:19;101764.75;;;2.19;71.83
52032;BME280;38044;45.148;39.604;2024-02-16T06:10:45;101756.38;;;2.15;72.17
52032;BME280;38044;45.148;39.604;2024-02-16T06:13:17;101728.22;;;2.14;71.99
52032;BME280;38044;45.148;39.604;2024-02-16T06:15:43;101759.44;;;2.32;71.50
52032;BME280;38044;45.148;39.604;2024-02-16T06:18:09;101750.59;;;2.52;71.16
52032;BME280;38044;45.148;39.604;2024-02-16T06:20:35;101760.78;;;2.55;71.25
52032;BME280;38044;45.148;39.604;2024-02-16T06:23:01;101757.31;;;2.67;70.06
52032;BME280;38044;45.148;39.604;2024-02-16T06:25:27;101772.19;;;2.68;69.99
52032;BME280;38044;45.148;39.604;2024-02-16T06:27:53;101739.72;;;2.73;69.49
52032;BME280;38044;45.148;39.604;2024-02-16T06:30:19;101751.50;;;2.90;69.36
52032;BME280;38044;45.148;39.604;2024-02-16T06:32:44;101764.97;;;2.89;69.53
52032;BME280;38044;45.148;39.604;2024-02-16T06:35:11;101765.59;;;2.98;69.08
52032;BME280;38044;45.148;39.604;2024-02-16T06:37:37;101769.25;;;2.97;69.65
52032;BME280;38044;45.148;39.604;2024-02-16T06:40:05;101772.84;;;3.15;68.25
52032;BME280;38044;45.148;39.604;2024-02-16T06:42:31;101763.88;;;3.10;68.19
52032;BME280;38044;45.148;39.604;2024-02-16T06:44:59;101761.38;;;3.22;68.21
52032;BME280;38044;45.148;39.604;2024-02-16T06:47:25;101767.00;;;3.38;67.59
52032;BME280;38044;45.148;39.604;2024-02-16T06:49:51;101765.59;;;3.36;67.00
52032;BME280;38044;45.148;39.604;2024-02-16T06:52:18;101766.75;;;3.47;67.31
52032;BME280;38044;45.148;39.604;2024-02-16T06:54:44;101762.75;;;3.69;67.16
52032;BME280;38044;45.148;39.604;2024-02-16T06:57:10;101759.34;;;3.80;66.12
52032;BME280;38044;45.148;39.604;2024-02-16T06:59:35;101768.94;;;3.88;64.60
52032;BME280;38044;45.148;39.604;2024-02-16T07:02:01;101769.13;;;4.12;64.36
52032;BME280;38044;45.148;39.604;2024-02-16T07:04:27;101772.78;;;4.17;64.04
52032;BME280;38044;45.148;39.604;2024-02-16T07:06:53;101764.28;;;4.70;63.27
52032;BME280;38044;45.148;39.604;2024-02-16T07:09:19;101801.03;;;4.80;61.97
52032;BME280;38044;45.148;39.604;2024-02-16T07:11:47;101775.81;;;4.83;62.45
52032;BME280;38044;45.148;39.604;2024-02-16T07:14:16;101780.03;;;4.90;62.11
52032;BME280;38044;45.148;39.604;2024-02-16T07:16:42;101775.97;;;4.88;62.22
52032;BME280;38044;45.148;39.604;2024-02-16T07:19:08;101783.53;;;4.72;62.08
52032;BME280;38044;45.148;39.604;2024-02-16T07:21:34;101771.66;;;4.68;62.52
52032;BME280;38044;45.148;39.604;2024-02-16T07:24:00;101771.81;;;4.73;61.89
52032;BME280;38044;45.148;39.604;2024-02-16T07:26:26;101760.72;;;4.58;62.34
52032;BME280;38044;45.148;39.604;2024-02-16T07:28:52;101766.63;;;4.42;62.06
52032;BME280;38044;45.148;39.604;2024-02-16T07:31:18;101764.75;;;4.24;62.47
52032;BME280;38044;45.148;39.604;2024-02-16T07:33:44;101779.03;;;4.29;63.12
52032;BME280;38044;45.148;39.604;2024-02-16T07:36:10;101774.41;;;4.18;62.86
52032;BME280;38044;45.148;39.604;2024-02-16T07:38:36;101742.94;;;4.15;63.31
52032;BME280;38044;45.148;39.604;2024-02-16T07:41:01;101748.19;;;3.97;63.41
52032;BME280;38044;45.148;39.604;2024-02-16T07:43:27;101765.63;;;3.93;63.45
52032;BME280;38044;45.148;39.604;2024-02-16T07:45:53;101770.81;;;4.06;63.54
52032;BME280;38044;45.148;39.604;2024-02-16T07:48:20;101768.94;;;4.13;63.26
52032;BME280;38044;45.148;39.604;2024-02-16T07:50:47;101771.66;;;3.81;64.48
52032;BME280;38044;45.148;39.604;2024-02-16T07:53:14;101770.88;;;3.74;64.52
52032;BME280;38044;45.148;39.604;2024-02-16T07:55:40;101756.81;;;3.67;64.26
52032;BME280;38044;45.148;39.604;2024-02-16T07:58:05;101792.63;;;3.65;64.20
52032;BME280;38044;45.148;39.604;2024-02-16T08:00:31;101769.44;;;3.72;64.15
52032;BME280;38044;45.148;39.604;2024-02-16T08:02:57;101784.78;;;3.76;63.97
52032;BME280;38044;45.148;39.604;2024-02-16T08:05:23;101764.44;;;3.57;64.72
52032;BME280;38044;45.148;39.604;2024-02-16T08:07:51;101764.00;;;3.60;65.13
52032;BME280;38044;45.148;39.604;2024-02-16T08:10:20;101776.97;;;3.81;64.48
52032;BME280;38044;45.148;39.604;2024-02-16T08:12:50;101783.66;;;3.91;64.70
52032;BME280;38044;45.148;39.604;2024-02-16T08:15:16;101769.38;;;4.10;64.37
52032;BME280;38044;45.148;39.604;2024-02-16T08:17:48;101779.69;;;4.00;64.58
52032;BME280;38044;45.148;39.604;2024-02-16T08:20:16;101776.81;;;4.01;63.86
52032;BME280;38044;45.148;39.604;2024-02-16T08:22:42;101788.88;;;4.04;64.04
52032;BME280;38044;45.148;39.604;2024-02-16T08:25:08;101804.44;;;4.25;63.58
52032;BME280;38044;45.148;39.604;2024-02-16T08:27:34;101788.03;;;4.28;62.92
52032;BME280;38044;45.148;39.604;2024-02-16T08:30:00;101779.03;;;4.29;63.36
52032;BME280;38044;45.148;39.604;2024-02-16T08:32:28;101790.47;;;4.55;62.54
52032;BME280;38044;45.148;39.604;2024-02-16T08:34:55;101794.88;;;4.43;62.09
52032;BME280;38044;45.148;39.604;2024-02-16T08:37:21;101769.94;;;4.37;62.26
52032;BME280;38044;45.148;39.604;2024-02-16T08:39:47;101783.66;;;4.59;62.26
52032;BME280;38044;45.148;39.604;2024-02-16T08:42:13;101777.00;;;4.68;61.95
52032;BME280;38044;45.148;39.604;2024-02-16T08:44:40;101785.44;;;4.65;61.69
52032;BME280;38044;45.148;39.604;2024-02-16T08:47:07;101796.06;;;4.65;62.26
52032;BME280;38044;45.148;39.604;2024-02-16T08:49:34;101777.34;;;4.54;61.81
52032;BME280;38044;45.148;39.604;2024-02-16T08:52:00;101793.13;;;4.92;62.10
52032;BME280;38044;45.148;39.604;2024-02-16T08:54:26;101775.81;;;5.01;61.86
52032;BME280;38044;45.148;39.604;2024-02-16T08:56:53;101780.91;;;5.03;61.46
52032;BME280;38044;45.148;39.604;2024-02-16T08:59:20;101777.13;;;4.92;60.98
52032;BME280;38044;45.148;39.604;2024-02-16T09:01:46;101781.84;;;5.08;60.31
52032;BME280;38044;45.148;39.604;2024-02-16T09:04:12;101753.13;;;5.10;59.42
52032;BME280;38044;45.148;39.604;2024-02-16T09:06:38;101768.78;;;5.07;59.76
52032;BME280;38044;45.148;39.604;2024-02-16T09:09:04;101769.38;;;4.90;60.26
52032;BME280;38044;45.148;39.604;2024-02-16T09:11:33;101772.19;;;5.26;60.19
52032;BME280;38044;45.148;39.604;2024-02-16T09:14:01;101753.38;;;5.39;59.27
52032;BME280;38044;45.148;39.604;2024-02-16T09:16:27;101766.63;;;5.57;59.46
52032;BME280;38044;45.148;39.604;2024-02-16T09:18:53;101736.75;;;5.67;58.32
52032;BME280;38044;45.148;39.604;2024-02-16T09:21:19;101757.72;;;5.63;58.46
52032;BME280;38044;45.148;39.604;2024-02-16T09:23:45;101751.47;;;5.70;58.52
52032;BME280;38044;45.148;39.604;2024-02-16T09:26:11;101753.16;;;6.18;57.23
52032;BME280;38044;45.148;39.604;2024-02-16T09:28:40;101760.38;;;6.05;57.63
52032;BME280;38044;45.148;39.604;2024-02-16T09:31:07;101750.28;;;5.96;57.47
52032;BME280;38044;45.148;39.604;2024-02-16T09:33:33;101744.78;;;6.73;56.54
52032;BME280;38044;45.148;39.604;2024-02-16T09:36:00;101751.78;;;7.31;55.07
52032;BME280;38044;45.148;39.604;2024-02-16T09:38:26;101764.47;;;7.70;54.14
52032;BME280;38044;45.148;39.604;2024-02-16T09:40:52;101749.56;;;8.07;53.18
52032;BME280;38044;45.148;39.604;2024-02-16T09:43:27;101746.50;;;7.99;52.96
52032;BME280;38044;45.148;39.604;2024-02-16T09:45:57;101737.59;;;8.15;53.01
52032;BME280;38044;45.148;39.604;2024-02-16T09:48:25;101742.38;;;8.47;51.95
52032;BME280;38044;45.148;39.604;2024-02-16T09:50:53;101752.53;;;8.67;51.10
52032;BME280;38044;45.148;39.604;2024-02-16T09:53:19;101739.91;;;8.62;51.24
52032;BME280;38044;45.148;39.604;2024-02-16T09:55:49;101749.00;;;7.88;51.75
52032;BME280;38044;45.148;39.604;2024-02-16T09:58:17;101756.06;;;7.04;53.45
52032;BME280;38044;45.148;39.604;2024-02-16T10:00:51;101749.63;;;6.76;54.67
52032;BME280;38044;45.148;39.604;2024-02-16T10:03:24;101741.75;;;6.58;55.79
52032;BME280;38044;45.148;39.604;2024-02-16T10:05:50;101736.47;;;6.11;56.18
52032;BME280;38044;45.148;39.604;2024-02-16T10:08:19;101750.63;;;5.99;56.79
52032;BME280;38044;45.148;39.604;2024-02-16T10:10:45;101735.25;;;5.83;56.65
52032;BME280;38044;45.148;39.604;2024-02-16T10:13:11;101717.59;;;5.58;57.03
52032;BME280;38044;45.148;39.604;2024-02-16T10:15:37;101734.28;;;5.65;57.88
52032;BME280;38044;45.148;39.604;2024-02-16T10:18:06;101716.81;;;5.81;57.85
52032;BME280;38044;45.148;39.604;2024-02-16T10:20:34;101728.53;;;5.92;58.14
52032;BME280;38044;45.148;39.604;2024-02-16T10:23:07;101720.91;;;6.07;57.36
52032;BME280;38044;45.148;39.604;2024-02-16T10:25:39;101728.81;;;6.02;57.40
52032;BME280;38044;45.148;39.604;2024-02-16T10:28:09;101737.28;;;6.23;57.54
52032;BME280;38044;45.148;39.604;2024-02-16T10:30:41;101720.75;;;6.61;57.22
52032;BME280;38044;45.148;39.604;2024-02-16T10:33:11;101734.47;;;6.93;54.70
52032;BME280;38044;45.148;39.604;2024-02-16T10:35:38;101723.78;;;6.93;55.33
52032;BME280;38044;45.148;39.604;2024-02-16T10:38:07;101716.00;;;6.51;55.84
52032;BME280;38044;45.148;39.604;2024-02-16T10:40:40;101726.66;;;6.51;56.04
52032;BME280;38044;45.148;39.604;2024-02-16T10:43:07;101733.78;;;6.11;56.38
52032;BME280;38044;45.148;39.604;2024-02-16T10:45:37;101726.09;;;6.38;56.01
52032;BME280;38044;45.148;39.604;2024-02-16T10:48:04;101716.97;;;6.22;56.32
52032;BME280;38044;45.148;39.604;2024-02-16T10:50:32;101731.09;;;6.46;56.75
52032;BME280;38044;45.148;39.604;2024-02-16T10:53:22;101730.47;;;7.08;56.60
52032;BME280;38044;45.148;39.604;2024-02-16T10:55:50;101732.03;;;7.20;54.95
52032;BME280;38044;45.148;39.604;2024-02-16T10:58:20;101734.66;;;7.04;55.59
52032;BME280;38044;45.148;39.604;2024-02-16T11:00:55;101727.09;;;6.72;56.35
52032;BME280;38044;45.148;39.604;2024-02-16T11:03:25;101738.03;;;6.70;56.67
52032;BME280;38044;45.148;39.604;2024-02-16T11:05:52;101734.56;;;6.46;56.55
52032;BME280;38044;45.148;39.604;2024-02-16T11:08:19;101731.56;;;6.43;57.13
52032;BME280;38044;45.148;39.604;2024-02-16T11:10:59;101726.00;;;6.44;56.86
52032;BME280;38044;45.148;39.604;2024-02-16T11:13:28;101718.84;;;6.09;57.92
52032;BME280;38044;45.148;39.604;2024-02-16T11:16:02;101738.78;;;6.42;57.42
52032;BME280;38044;45.148;39.604;2024-02-16T11:18:32;101732.72;;;6.35;58.29
52032;BME280;38044;45.148;39.604;2024-02-16T11:21:03;101735.75;;;6.50;56.84
52032;BME280;38044;45.148;39.604;2024-02-16T11:23:34;101737.28;;;6.23;57.11
52032;BME280;38044;45.148;39.604;2024-02-16T11:26:05;101732.00;;;5.81;57.84
52032;BME280;38044;45.148;39.604;2024-02-16T11:28:36;101737.88;;;5.59;59.10
52032;BME280;38044;45.148;39.604;2024-02-16T11:31:03;101727.34;;;5.64;58.55
52032;BME280;38044;45.148;39.604;2024-02-16T11:33:30;101728.13;;;5.53;58.47
52032;BME280;38044;45.148;39.604;2024-02-16T11:36:00;101737.69;;;5.31;59.75
52032;BME280;38044;45.148;39.604;2024-02-16T11:38:27;101741.84;;;5.27;60.49
52032;BME280;38044;45.148;39.604;2024-02-16T11:40:57;101713.19;;;5.22;59.84
52032;BME280;38044;45.148;39.604;2024-02-16T11:43:24;101726.31;;;5.24;60.66
52032;BME280;38044;45.148;39.604;2024-02-16T11:45:50;101728.06;;;5.30;60.20
52032;BME280;38044;45.148;39.604;2024-02-16T11:48:20;101734.41;;;5.29;60.08
52032;BME280;38044;45.148;39.604;2024-02-16T11:50:49;101704.88;;;5.00;60.27
52032;BME280;38044;45.148;39.604;2024-02-16T11:53:18;101729.66;;;5.01;60.99
52032;BME280;38044;45.148;39.604;2024-02-16T11:55:48;101715.72;;;4.87;61.40
52032;BME280;38044;45.148;39.604;2024-02-16T11:58:18;101727.91;;;4.94;61.68
52032;BME280;38044;45.148;39.604;2024-02-16T12:00:48;101727.63;;;4.84;61.17
52032;BME280;38044;45.148;39.604;2024-02-16T12:03:24;101724.66;;;4.92;61.59
52032;BME280;38044;45.148;39.604;2024-02-16T12:05:55;101725.47;;;4.74;61.45
52032;BME280;38044;45.148;39.604;2024-02-16T12:08:21;101713.22;;;4.55;62.09
52032;BME280;38044;45.148;39.604;2024-02-16T12:10:48;101713.22;;;4.55;62.05
52032;BME280;38044;45.148;39.604;2024-02-16T12:13:18;101729.56;;;4.77;62.24
52032;BME280;38044;45.148;39.604;2024-02-16T12:15:45;101737.28;;;4.67;61.59
52032;BME280;38044;45.148;39.604;2024-02-16T12:18:22;101725.06;;;4.59;62.09
52032;BME280;38044;45.148;39.604;2024-02-16T12:21:01;101724.75;;;4.49;62.89
52032;BME280;38044;45.148;39.604;2024-02-16T12:23:28;101727.78;;;4.34;63.54
52032;BME280;38044;45.148;39.604;2024-02-16T12:25:56;101728.59;;;4.35;62.69
52032;BME280;38044;45.148;39.604;2024-02-16T12:28:25;101727.34;;;4.37;62.47
52032;BME280;38044;45.148;39.604;2024-02-16T12:30:51;101720.97;;;4.20;63.20
52032;BME280;38044;45.148;39.604;2024-02-16T12:33:17;101713.50;;;4.28;62.74
52032;BME280;38044;45.148;39.604;2024-02-16T12:35:43;101722.66;;;4.14;63.54
52032;BME280;38044;45.148;39.604;2024-02-16T12:38:11;101734.34;;;4.13;63.84
52032;BME280;38044;45.148;39.604;2024-02-16T12:40:37;101735.06;;;4.20;62.60
52032;BME280;38044;45.148;39.604;2024-02-16T12:43:03;101714.13;;;4.05;63.27
52032;BME280;38044;45.148;39.604;2024-02-16T12:45:29;101731.94;;;4.05;62.83
52032;BME280;38044;45.148;39.604;2024-02-16T12:47:55;101709.00;;;3.86;63.75
52032;BME280;38044;45.148;39.604;2024-02-16T12:50:20;101737.53;;;3.97;63.75